Mt Bachelor previous 24hr weather report
        updated 11/20/2014 14:08
Year Month Date Time Base Pmx Smt Pmx Smt Pmx Pmx Pmx Smt Smt Smt Srx Srx Srx
Temp Temp Temp RH RH wind wind wind wind wind wind wind wind wind
6300' 7800' 9000' 7800' 9000' avg max dir avg max dir avg max dir
1 2014 11 20 11/20/2014 1400 40.2 29.5 22.6 80 97 5 14 165 23 30 187
2 2014 11 20 11/20/2014 1300 40.5 29.4 23 73 97 6 16 96 18 29 198
3 2014 11 20 11/20/2014 1200 40.2 29.3 22 82 97 15 25 151 20 27 178
4 2014 11 20 11/20/2014 1100 47 28.1 22.1 73 97 16 22 115 16 22 187
5 2014 11 20 11/20/2014 1000 39.9 25.6 23 94 97 11 18 134 10 17 200
6 2014 11 20 11/20/2014 900 38.4 26.1 23.7 95 97 11 20 146 13 22 194
7 2014 11 20 11/20/2014 800 34.7 25.7 23.7 96 97 13 17 161 9 20 193
8 2014 11 20 11/20/2014 700 33.9 27.3 24.1 96 97 11 17 162 9 24 211
9 2014 11 20 11/20/2014 600 33.8 27.5 24.8 97 98 12 19 148 20 38 213
10 2014 11 20 11/20/2014 500 33.7 28 25.3 97 98 14 21 196 15 35 208
11 2014 11 20 11/20/2014 400 33.9 28.3 25.5 97 98 17 25 175 36 45 218
12 2014 11 20 11/20/2014 300 33.8 28.8 25.6 97 98 17 28 174 41 51 218
13 2014 11 20 11/20/2014 200 33 28.8 25.8 97 98 24 35 188 15 41 221
14 2014 11 20 11/20/2014 100 33.3 28.9 26.3 97 98 26 36 196 25 46 203
15 2014 11 19 11/19/2014 2400 33.6 29.2 26.5 97 99 25 33 192 41 58 206
16 2014 11 19 11/19/2014 2300 33.6 29.6 26.3 97 98 26 38 215 16 47 116
17 2014 11 19 11/19/2014 2200 33.5 29.9 25.8 97 98 28 39 232 23 48 55
18 2014 11 19 11/19/2014 2100 34.8 30.3 25.8 97 98 24 37 228 23 43 281
19 2014 11 19 11/19/2014 2000 33.7 30 23.4 97 98 26 41 207 24 40 152
20 2014 11 19 11/19/2014 1900 32.5 30.4 22.3 96 97 29 40 210 43 53 132
21 2014 11 19 11/19/2014 1800 34 29.4 24.7 94 93 25 35 109 50 58 92
22 2014 11 19 11/19/2014 1700 35.8 28.3 28.4 86 60 33 47 85 51 58 100
23 2014 11 19 11/19/2014 1600 38.8 31.1 29.1 80 59 32 45 91 39 49 105
24 2014 11 19 11/19/2014 1500 42.9 33.4 28.1 53 63 25 38 82 47 58 121
1 2014 11 19 11/19/2014 1400 42.4 33.4 27.2 51 62 21 30 57 65 75 121